Time;durP1;ratioP1;P1;durP2;ratioP2;P2;SDS_P1;SDS_P2;PMS_P1;PMS_P2;Temp;Humidity;BMP_temperature;BMP_pressure;BME280_temperature;BME280_humidity;BME280_pressure;Samples;Min_cycle;Max_cycle;Signal;HPM_P1;HPM_P2
2020/12/10 00:00:32;;;;;;;125.20;48.88;;;;;;;0.26;98.09;100501.53;4948964;28;20134;-48
2020/12/10 00:02:59;;;;;;;122.00;46.30;;;;;;;0.13;99.00;100509.94;4949219;28;20051;-50
2020/12/10 00:05:26;;;;;;;120.63;47.90;;;;;;;0.09;99.35;100504.63;4958554;28;20043;-48
2020/12/10 00:07:53;;;;;;;121.45;46.22;;;;;;;0.19;99.37;100509.50;4964141;28;20046;-47
2020/12/10 00:10:19;;;;;;;115.03;47.70;;;;;;;0.45;98.84;100509.47;4963323;28;20058;-47
2020/12/10 00:12:46;;;;;;;122.97;48.15;;;;;;;0.44;98.56;100514.44;4964331;28;20705;-50
2020/12/10 00:15:13;;;;;;;113.72;47.15;;;;;;;0.12;98.63;100508.22;4962959;28;20058;-51
2020/12/10 00:17:40;;;;;;;128.93;50.47;;;;;;;0.10;99.40;100499.69;4964128;28;20492;-50
2020/12/10 00:20:09;;;;;;;123.45;49.90;;;;;;;0.07;99.09;100508.69;4963502;28;20054;-46
2020/12/10 00:22:35;;;;;;;132.30;52.08;;;;;;;0.00;99.97;100497.38;4946561;28;20058;-51
2020/12/10 00:25:06;;;;;;;135.32;51.53;;;;;;;0.03;99.54;100500.06;4946372;28;20150;-51
2020/12/10 00:27:35;;;;;;;128.48;49.05;;;;;;;0.29;98.76;100495.84;4946374;28;20055;-51
2020/12/10 00:30:06;;;;;;;123.80;49.03;;;;;;;0.11;99.28;100488.84;4946618;28;20062;-50
2020/12/10 00:32:33;;;;;;;131.88;49.78;;;;;;;0.23;98.47;100492.16;4947514;28;20055;-49
2020/12/10 00:35:00;;;;;;;128.93;49.58;;;;;;;0.22;98.77;100487.00;4948230;28;20058;-47
2020/12/10 00:37:27;;;;;;;136.85;50.97;;;;;;;0.05;98.82;100491.00;4949205;28;20055;-51
2020/12/10 00:39:55;;;;;;;124.68;51.55;;;;;;;0.05;99.58;100495.13;4948648;28;20047;-49
2020/12/10 00:42:22;;;;;;;123.50;49.55;;;;;;;0.32;98.68;100496.88;4949098;28;20043;-51
2020/12/10 00:44:49;;;;;;;132.35;49.63;;;;;;;0.49;97.65;100500.47;4948215;28;20051;-50
2020/12/10 00:47:19;;;;;;;122.00;49.78;;;;;;;0.25;97.20;100505.72;4948979;28;20055;-53
2020/12/10 00:49:47;;;;;;;134.48;51.78;;;;;;;0.16;97.69;100492.53;4948289;28;20062;-47
2020/12/10 00:52:14;;;;;;;122.03;50.25;;;;;;;0.46;98.20;100495.22;4949512;28;20066;-47
2020/12/10 00:54:41;;;;;;;119.05;47.92;;;;;;;0.28;98.16;100489.03;4951902;28;20054;-52
2020/12/10 00:57:11;;;;;;;127.45;48.70;;;;;;;0.35;97.58;100481.97;4952428;28;20055;-48
2020/12/10 00:59:39;;;;;;;125.32;49.80;;;;;;;0.07;99.07;100489.44;4952027;28;20051;-48
2020/12/10 01:02:09;;;;;;;130.50;49.20;;;;;;;0.41;98.45;100494.06;4952060;28;20047;-49
2020/12/10 01:04:37;;;;;;;131.70;49.53;;;;;;;0.36;97.93;100475.28;4949886;28;20134;-46
2020/12/10 01:07:03;;;;;;;134.40;52.38;;;;;;;0.04;98.27;100489.22;4949876;28;20047;-50
2020/12/10 01:09:30;;;;;;;134.38;50.63;;;;;;;0.03;99.14;100489.13;4949901;28;20051;-50
2020/12/10 01:11:56;;;;;;;133.13;49.63;;;;;;;0.16;98.91;100467.34;4950372;28;20051;-46
2020/12/10 01:14:23;;;;;;;135.02;51.47;;;;;;;0.50;98.50;100479.53;4949571;28;20051;-50
2020/12/10 01:16:50;;;;;;;122.72;49.50;;;;;;;0.52;97.05;100483.03;4949627;28;20070;-49
2020/12/10 01:19:17;;;;;;;138.57;50.97;;;;;;;0.33;97.33;100453.31;4949532;28;20062;-52
2020/12/10 01:21:43;;;;;;;134.68;49.63;;;;;;;0.62;96.92;100484.47;4951777;28;20062;-50
2020/12/10 01:24:11;;;;;;;129.38;49.00;;;;;;;0.27;96.48;100467.16;4952223;28;20063;-51
2020/12/10 01:26:38;;;;;;;131.70;49.42;;;;;;;0.07;98.45;100481.00;4951460;28;20676;-47
2020/12/10 01:29:06;;;;;;;133.35;49.78;;;;;;;0.16;98.93;100469.00;4951304;28;20083;-48
2020/12/10 01:31:32;;;;;;;143.88;53.17;;;;;;;0.09;98.57;100459.31;4951739;28;20051;-52
2020/12/10 01:33:59;;;;;;;143.77;53.78;;;;;;;-0.13;98.73;100464.63;4951439;28;20062;-51
2020/12/10 01:36:31;;;;;;;143.85;55.03;;;;;;;-0.22;99.76;100462.41;4961461;28;20066;-49
2020/12/10 01:38:58;;;;;;;155.93;57.88;;;;;;;-0.29;100.00;100456.06;4966802;28;20093;-48
2020/12/10 01:41:31;;;;;;;144.52;53.75;;;;;;;-0.15;100.00;100453.59;4965994;28;20047;-49
2020/12/10 01:44:11;;;;;;;152.40;55.60;;;;;;;-0.31;100.00;100446.72;4966660;28;20043;-49
2020/12/10 01:46:39;;;;;;;159.93;55.70;;;;;;;-0.18;100.00;100441.69;4950983;28;20050;-52
2020/12/10 01:49:06;;;;;;;137.82;52.50;;;;;;;0.03;99.66;100439.66;4950271;28;20047;-47
2020/12/10 01:51:34;;;;;;;151.35;56.22;;;;;;;-0.15;99.35;100436.84;4951289;28;20110;-50
2020/12/10 01:54:01;;;;;;;153.82;54.47;;;;;;;-0.14;100.00;100432.66;4950956;28;20051;-49
2020/12/10 01:56:28;;;;;;;153.35;57.08;;;;;;;-0.24;99.93;100427.84;4952116;28;20450;-46
2020/12/10 01:58:55;;;;;;;155.82;53.72;;;;;;;-0.02;100.00;100421.75;4950986;28;20126;-47
2020/12/10 02:01:22;;;;;;;152.82;56.35;;;;;;;-0.28;100.00;100410.03;4951718;28;20051;-48
2020/12/10 02:03:48;;;;;;;148.07;52.70;;;;;;;-0.26;99.90;100400.94;4951048;28;20516;-49
2020/12/10 02:06:15;;;;;;;144.95;55.08;;;;;;;-0.22;99.73;100396.97;4951545;28;20063;-48
2020/12/10 02:08:42;;;;;;;144.93;54.78;;;;;;;-0.13;99.85;100396.69;4951023;28;20051;-49
2020/12/10 02:11:10;;;;;;;166.75;56.83;;;;;;;-0.27;100.00;100396.69;4951477;28;20133;-48
2020/12/10 02:13:36;;;;;;;153.38;57.05;;;;;;;-0.24;100.00;100382.56;4950527;28;20766;-51
2020/12/10 02:16:04;;;;;;;148.60;54.22;;;;;;;-0.10;99.60;100399.38;4950586;28;20731;-53
2020/12/10 02:18:30;;;;;;;154.45;53.50;;;;;;;-0.33;100.00;100401.31;4951329;28;20048;-51
2020/12/10 02:20:57;;;;;;;155.55;58.20;;;;;;;-0.40;100.00;100394.16;4950906;28;20141;-50
2020/12/10 02:23:24;;;;;;;145.10;54.45;;;;;;;-0.07;100.00;100387.00;4951268;28;20579;-50
2020/12/10 02:25:50;;;;;;;149.45;54.80;;;;;;;-0.02;99.72;100384.00;4950508;28;20105;-47
2020/12/10 02:28:17;;;;;;;145.32;53.53;;;;;;;-0.22;99.27;100391.09;4951004;28;20094;-52
2020/12/10 02:30:46;;;;;;;161.32;57.00;;;;;;;-0.40;100.00;100388.25;4950473;28;20578;-50
2020/12/10 02:33:14;;;;;;;152.82;55.58;;;;;;;-0.09;100.00;100386.91;4951139;28;20051;-53
2020/12/10 02:35:42;;;;;;;158.75;55.03;;;;;;;-0.27;99.58;100389.13;4950332;28;20492;-47
2020/12/10 02:38:11;;;;;;;152.90;55.83;;;;;;;-0.33;99.68;100400.44;4950921;28;20552;-53
2020/12/10 02:40:42;;;;;;;153.60;53.20;;;;;;;-0.11;99.97;100397.66;4950748;28;20106;-51
2020/12/10 02:43:10;;;;;;;156.50;56.35;;;;;;;-0.33;99.81;100388.72;4950723;28;20102;-50
2020/12/10 02:45:39;;;;;;;145.23;52.22;;;;;;;-0.41;100.00;100387.38;4950105;28;20601;-50
2020/12/10 02:48:06;;;;;;;163.10;56.33;;;;;;;-0.24;100.00;100393.47;4949831;28;20047;-50
2020/12/10 02:50:32;;;;;;;143.85;51.47;;;;;;;0.00;99.47;100391.66;4950269;28;20102;-48
2020/12/10 02:52:58;;;;;;;146.32;55.33;;;;;;;-0.06;99.19;100397.16;4950387;28;20047;-51
2020/12/10 02:55:25;;;;;;;152.02;55.78;;;;;;;-0.30;98.84;100405.69;4950829;28;20054;-51
2020/12/10 02:57:51;;;;;;;147.52;54.90;;;;;;;-0.17;99.56;100393.09;4949573;28;20051;-51
2020/12/10 03:00:18;;;;;;;156.02;55.22;;;;;;;-0.26;99.48;100390.88;4950839;28;20059;-51
2020/12/10 03:02:44;;;;;;;156.70;54.63;;;;;;;-0.21;100.00;100396.19;4950189;28;20196;-52
2020/12/10 03:05:11;;;;;;;160.70;55.90;;;;;;;-0.23;100.00;100392.72;4950721;28;20422;-49
2020/12/10 03:07:37;;;;;;;155.05;56.85;;;;;;;-0.31;99.35;100391.38;4949194;28;20663;-50
2020/12/10 03:10:05;;;;;;;147.82;55.00;;;;;;;-0.39;99.49;100392.50;4949557;28;20055;-52
2020/12/10 03:12:32;;;;;;;159.68;55.97;;;;;;;-0.23;99.73;100385.19;4950480;28;20051;-50
2020/12/10 03:14:59;;;;;;;159.68;55.88;;;;;;;-0.44;100.00;100382.16;4949470;28;20055;-49
2020/12/10 03:17:26;;;;;;;159.55;57.33;;;;;;;-0.32;100.00;100379.56;4959719;28;20051;-53
2020/12/10 03:19:55;;;;;;;155.63;55.17;;;;;;;-0.17;100.00;100382.19;4965294;28;20097;-52
2020/12/10 03:22:21;;;;;;;155.05;54.80;;;;;;;-0.02;98.75;100388.16;4964454;28;20051;-49
2020/12/10 03:24:48;;;;;;;149.65;51.47;;;;;;;-0.43;99.47;100383.03;4965168;28;20074;-49
2020/12/10 03:27:14;;;;;;;144.88;51.25;;;;;;;-0.35;99.74;100375.19;4964401;28;20055;-52
2020/12/10 03:29:41;;;;;;;158.15;55.78;;;;;;;-0.45;100.00;100365.31;4964879;28;20101;-50
2020/12/10 03:32:07;;;;;;;159.40;56.20;;;;;;;-0.38;100.00;100357.38;4965009;28;20046;-53
2020/12/10 03:34:34;;;;;;;158.65;56.90;;;;;;;-0.42;100.00;100347.03;4964324;28;20519;-54
2020/12/10 03:37:01;;;;;;;157.50;55.55;;;;;;;-0.37;100.00;100359.16;4964867;28;20796;-48
2020/12/10 03:39:29;;;;;;;164.05;57.03;;;;;;;-0.46;100.00;100352.63;4964404;28;20571;-49
2020/12/10 03:41:58;;;;;;;164.00;57.83;;;;;;;-0.41;100.00;100354.69;4965252;28;20054;-52
2020/12/10 03:44:25;;;;;;;170.95;57.88;;;;;;;-0.32;100.00;100342.69;4964038;28;20087;-50
2020/12/10 03:46:52;;;;;;;157.45;55.80;;;;;;;-0.38;100.00;100346.47;4964703;28;20054;-46
2020/12/10 03:49:19;;;;;;;163.13;56.15;;;;;;;-0.13;100.00;100354.78;4963844;28;20470;-49
2020/12/10 03:51:45;;;;;;;166.07;54.53;;;;;;;-0.07;100.00;100349.25;4964805;28;20507;-50
2020/12/10 03:54:12;;;;;;;149.45;53.15;;;;;;;0.19;99.38;100344.19;4963689;28;20058;-49
2020/12/10 03:56:38;;;;;;;158.32;55.92;;;;;;;-0.26;98.83;100353.13;4964550;28;20047;-50
2020/12/10 03:59:05;;;;;;;154.70;54.72;;;;;;;-0.40;100.00;100348.88;4964269;28;20564;-50
2020/12/10 04:01:32;;;;;;;161.73;52.38;;;;;;;-0.18;100.00;100351.13;4964156;28;20058;-47
2020/12/10 04:04:00;;;;;;;169.60;55.85;;;;;;;-0.32;100.00;100349.38;4964746;28;20526;-47
2020/12/10 04:06:26;;;;;;;167.02;53.28;;;;;;;-0.47;100.00;100356.78;4963676;28;20047;-46
2020/12/10 04:08:54;;;;;;;152.13;54.30;;;;;;;-0.13;100.00;100358.94;4964629;28;20097;-53
2020/12/10 04:11:21;;;;;;;141.05;52.72;;;;;;;-0.14;100.00;100348.03;4963673;28;20058;-49
2020/12/10 04:13:47;;;;;;;156.43;56.47;;;;;;;-0.42;100.00;100349.53;4964254;28;20054;-51
2020/12/10 04:16:14;;;;;;;160.07;55.88;;;;;;;-0.38;100.00;100344.81;4963402;28;20105;-53
2020/12/10 04:18:41;;;;;;;151.32;52.17;;;;;;;-0.41;100.00;100347.16;4964600;28;20046;-51
2020/12/10 04:21:10;;;;;;;159.52;52.78;;;;;;;-0.60;100.00;100352.66;4963844;28;20059;-46
2020/12/10 04:23:36;;;;;;;160.95;53.30;;;;;;;-0.45;100.00;100346.84;4948762;28;20051;-49
2020/12/10 04:26:03;;;;;;;158.80;52.38;;;;;;;-0.46;100.00;100350.13;4948832;28;20074;-50
2020/12/10 04:28:30;;;;;;;144.70;50.75;;;;;;;-0.32;100.00;100350.25;4962853;28;20050;-53
2020/12/10 04:30:57;;;;;;;145.93;51.58;;;;;;;-0.28;100.00;100354.69;4964506;28;20462;-50
2020/12/10 04:33:23;;;;;;;146.63;49.35;;;;;;;-0.43;100.00;100353.72;4963192;28;20055;-51
2020/12/10 04:35:49;;;;;;;164.35;52.65;;;;;;;-0.38;100.00;100354.88;4964334;28;20055;-51
2020/12/10 04:38:16;;;;;;;162.82;54.33;;;;;;;-0.44;100.00;100353.63;4962963;28;20467;-51
2020/12/10 04:40:43;;;;;;;171.45;53.08;;;;;;;-0.57;100.00;100359.50;4965964;28;20053;-50
2020/12/10 04:43:11;;;;;;;170.57;54.42;;;;;;;-0.47;100.00;100350.91;5011358;23;20034;-51
2020/12/10 04:45:38;;;;;;;171.13;56.78;;;;;;;-0.59;100.00;100351.00;4945142;28;20051;-43
2020/12/10 04:48:05;;;;;;;152.55;51.45;;;;;;;-0.35;100.00;100352.56;4951592;28;20051;-48
2020/12/10 04:50:35;;;;;;;159.95;52.30;;;;;;;-0.23;100.00;100346.53;4951954;28;20054;-49
2020/12/10 04:53:03;;;;;;;157.70;52.95;;;;;;;-0.53;100.00;100349.75;4951590;28;20047;-46
2020/12/10 04:55:30;;;;;;;165.52;52.50;;;;;;;-0.52;100.00;100355.63;4950999;28;20102;-50
2020/12/10 04:57:59;;;;;;;168.80;55.17;;;;;;;-0.60;100.00;100350.13;4951459;28;20117;-47
2020/12/10 05:00:27;;;;;;;154.05;53.85;;;;;;;-0.30;100.00;100343.66;4952634;28;20054;-48
2020/12/10 05:02:55;;;;;;;162.77;52.42;;;;;;;-0.52;100.00;100348.09;4951361;28;20086;-50
2020/12/10 05:05:26;;;;;;;150.70;51.97;;;;;;;-0.41;100.00;100346.28;4951973;28;20051;-46
2020/12/10 05:07:54;;;;;;;153.60;51.35;;;;;;;-0.69;100.00;100346.13;4951127;28;20586;-48
2020/12/10 05:10:21;;;;;;;147.43;49.30;;;;;;;-0.52;100.00;100348.09;4951983;28;20051;-47
2020/12/10 05:12:48;;;;;;;137.70;49.15;;;;;;;-0.59;100.00;100348.50;4947930;28;20051;-48
2020/12/10 05:15:31;;;;;;;135.25;48.58;;;;;;;-0.58;100.00;100342.69;4952107;28;20122;-48
2020/12/10 05:18:11;;;;;;;140.40;47.60;;;;;;;-0.57;100.00;100349.44;4958571;28;20073;-45
2020/12/10 05:20:45;;;;;;;135.25;48.13;;;;;;;-0.33;100.00;100348.47;4944152;28;20098;-46
2020/12/10 05:23:27;;;;;;;124.22;44.45;;;;;;;-0.34;100.00;100348.41;4961825;28;20384;-45
2020/12/10 05:25:55;;;;;;;120.00;45.72;;;;;;;-0.55;100.00;100350.44;4964673;28;20046;-44
2020/12/10 05:28:25;;;;;;;125.43;44.95;;;;;;;-0.32;99.97;100352.75;4966584;28;20055;-48
2020/12/10 05:31:08;;;;;;;127.78;45.50;;;;;;;-0.50;99.67;100353.25;4966536;28;20106;-47
2020/12/10 05:33:35;;;;;;;119.93;43.33;;;;;;;-0.33;99.65;100355.16;4962688;28;20406;-51
2020/12/10 05:36:06;;;;;;;119.55;46.55;;;;;;;-0.48;98.51;100354.19;4973406;28;20527;-43
2020/12/10 05:38:33;;;;;;;125.78;45.88;;;;;;;-0.64;99.36;100353.22;4976236;28;20121;-45
2020/12/10 05:41:22;;;;;;;130.40;45.08;;;;;;;-0.50;100.00;100348.22;4977722;28;20046;-46
2020/12/10 05:43:49;;;;;;;125.88;46.20;;;;;;;-0.43;99.75;100356.22;4955189;28;20614;-47
2020/12/10 05:46:21;;;;;;;121.00;43.40;;;;;;;-0.16;98.46;100353.72;4962137;28;20094;-47
2020/12/10 05:48:49;;;;;;;132.75;47.10;;;;;;;-0.80;100.00;100348.81;4973536;28;20053;-48
2020/12/10 05:51:18;;;;;;;136.38;46.05;;;;;;;-0.43;100.00;100351.19;4980322;28;20051;-46
2020/12/10 05:53:45;;;;;;;126.50;44.42;;;;;;;-0.49;99.12;100347.44;4984470;28;20051;-44
2020/12/10 05:56:13;;;;;;;128.50;46.40;;;;;;;-0.52;98.94;100356.50;4979071;28;20054;-44
2020/12/10 05:58:48;;;;;;;133.07;46.42;;;;;;;-0.68;99.96;100362.97;4973525;28;20101;-50
2020/12/10 06:01:35;;;;;;;131.40;47.95;;;;;;;-0.70;100.00;100352.81;4974700;28;20352;-46
2020/12/10 06:04:02;;;;;;;127.13;46.75;;;;;;;-0.57;100.00;100365.41;4952999;28;20043;-45
2020/12/10 06:06:30;;;;;;;119.03;42.72;;;;;;;-0.23;99.21;100361.63;4946561;28;20042;-45
2020/12/10 06:09:03;;;;;;;129.70;45.17;;;;;;;-0.64;99.18;100353.22;4953871;28;20047;-50
2020/12/10 06:11:31;;;;;;;125.22;45.33;;;;;;;-0.40;99.31;100363.97;4953301;28;20105;-45
2020/12/10 06:14:05;;;;;;;136.30;47.20;;;;;;;-0.64;100.00;100363.28;4953853;28;20047;-45
2020/12/10 06:16:33;;;;;;;144.27;46.13;;;;;;;-0.58;100.00;100361.16;4953556;28;20098;-47
2020/12/10 06:19:05;;;;;;;132.57;46.60;;;;;;;-0.72;100.00;100366.06;4953868;28;20551;-44
2020/12/10 06:21:35;;;;;;;131.15;47.63;;;;;;;-0.65;100.00;100364.03;4953528;28;20118;-51
2020/12/10 06:24:27;;;;;;;124.55;45.58;;;;;;;-0.48;99.61;100362.59;4953622;28;20130;-47
2020/12/10 06:26:54;;;;;;;135.73;44.60;;;;;;;-0.53;99.46;100366.47;4953670;28;20069;-44
2020/12/10 06:29:33;;;;;;;131.70;47.03;;;;;;;-0.61;99.58;100368.47;4954091;28;20055;-44
2020/12/10 06:32:14;;;;;;;129.40;43.25;;;;;;;-0.30;98.43;100366.28;4953891;28;20118;-49
2020/12/10 06:34:46;;;;;;;125.65;43.78;;;;;;;-0.46;98.52;100373.66;4953222;28;20051;-44
2020/12/10 06:37:21;;;;;;;131.13;45.85;;;;;;;-0.70;99.93;100372.91;4954448;28;20125;-44
2020/12/10 06:39:50;;;;;;;136.07;46.00;;;;;;;-0.48;99.80;100375.19;4957653;28;20103;-47
2020/12/10 06:42:17;;;;;;;123.25;47.33;;;;;;;-0.69;100.00;100372.16;4974291;28;20101;-44
2020/12/10 06:44:43;;;;;;;123.22;45.78;;;;;;;-0.26;99.83;100373.25;4971755;28;20569;-45
2020/12/10 06:47:10;;;;;;;126.45;45.70;;;;;;;0.11;99.16;100362.97;4966166;28;20051;-42
2020/12/10 06:49:38;;;;;;;147.27;49.67;;;;;;;-0.59;98.73;100363.56;4972924;28;20113;-40
2020/12/10 06:52:16;;;;;;;158.65;52.35;;;;;;;-0.78;100.00;100359.88;4972387;28;20134;-41
2020/12/10 06:55:05;;;;;;;138.00;47.65;;;;;;;-0.27;99.54;100361.47;4966772;28;20097;-42
2020/12/10 06:57:53;;;;;;;148.55;50.33;;;;;;;-0.63;100.00;100359.97;4977550;28;20495;-41
2020/12/10 07:00:38;;;;;;;154.35;52.03;;;;;;;-0.56;99.85;100364.63;4977371;28;20042;-40
2020/12/10 07:03:23;;;;;;;159.18;54.45;;;;;;;-0.77;100.00;100358.22;4980292;28;20590;-41
2020/12/10 07:05:50;;;;;;;156.98;52.60;;;;;;;-0.44;100.00;100366.19;4977272;28;20494;-39
2020/12/10 07:08:19;;;;;;;169.85;52.60;;;;;;;-0.15;100.00;100363.00;4973267;28;20057;-42
2020/12/10 07:10:47;;;;;;;158.05;51.17;;;;;;;-0.58;99.86;100360.28;4972034;28;20075;-40
2020/12/10 07:13:16;;;;;;;150.90;49.47;;;;;;;-0.24;100.00;100362.41;4972625;28;20054;-40
2020/12/10 07:15:50;;;;;;;153.60;50.67;;;;;;;-0.55;100.00;100357.97;4972400;28;20046;-39
2020/12/10 07:18:17;;;;;;;152.60;51.47;;;;;;;-0.41;99.89;100357.22;4969271;28;20578;-41
2020/12/10 07:20:44;;;;;;;155.55;52.15;;;;;;;-0.54;100.00;100359.72;4968128;28;20054;-40
2020/12/10 07:23:10;;;;;;;166.15;54.28;;;;;;;-0.81;100.00;100359.66;4979972;28;20712;-41
2020/12/10 07:25:37;;;;;;;158.82;53.53;;;;;;;-0.69;100.00;100364.63;4972921;28;20077;-44
2020/12/10 07:28:04;;;;;;;155.70;51.95;;;;;;;-0.61;100.00;100357.56;4980964;28;20116;-46
2020/12/10 07:30:31;;;;;;;163.50;53.35;;;;;;;-0.71;100.00;100352.72;4978789;28;20047;-46
2020/12/10 07:32:59;;;;;;;152.07;50.50;;;;;;;-0.32;100.00;100359.44;4984831;28;20090;-43
2020/12/10 07:35:35;;;;;;;151.10;50.47;;;;;;;-0.46;100.00;100355.16;4977004;28;20050;-41
2020/12/10 07:38:15;;;;;;;158.55;52.92;;;;;;;-0.50;99.97;100358.28;4965339;28;20047;-42
2020/12/10 07:40:43;;;;;;;153.52;51.38;;;;;;;-0.55;99.60;100355.47;4966761;28;20046;-40
2020/12/10 07:43:11;;;;;;;140.70;46.53;;;;;;;-0.21;100.00;100352.56;4954776;28;20050;-45
2020/12/10 07:45:37;;;;;;;141.90;46.05;;;;;;;-0.61;100.00;100355.03;4978818;28;20410;-42
2020/12/10 07:48:06;;;;;;;139.93;49.50;;;;;;;-0.29;100.00;100357.97;4976165;28;20093;-42
2020/12/10 07:50:38;;;;;;;150.75;49.72;;;;;;;-0.36;99.10;100349.97;4979371;28;20065;-42
2020/12/10 07:53:08;;;;;;;138.85;47.63;;;;;;;-0.31;98.76;100349.47;4981590;28;20070;-43
2020/12/10 07:55:37;;;;;;;131.70;47.60;;;;;;;-0.35;98.41;100354.19;4975406;28;20129;-45
2020/12/10 07:58:09;;;;;;;136.20;47.53;;;;;;;-0.44;98.81;100349.47;4981186;28;20062;-45
2020/12/10 08:00:38;;;;;;;135.18;47.15;;;;;;;-0.14;98.60;100340.47;4966770;28;20043;-47
2020/12/10 08:03:23;;;;;;;122.97;43.63;;;;;;;-0.04;97.58;100347.81;4972439;28;20342;-42
2020/12/10 08:05:59;;;;;;;130.82;44.45;;;;;;;-0.21;97.66;100352.56;4988036;28;20415;-41
2020/12/10 08:08:38;;;;;;;117.43;40.80;;;;;;;-0.57;97.81;100345.28;4962206;28;20046;-46
2020/12/10 08:11:17;;;;;;;127.40;42.35;;;;;;;-0.60;98.35;100346.72;4975766;28;20053;-41
2020/12/10 08:14:05;;;;;;;129.07;46.17;;;;;;;-0.70;99.11;100339.38;4973398;28;20497;-42
2020/12/10 08:16:59;;;;;;;133.30;43.72;;;;;;;-0.45;99.92;100349.38;4970620;28;20062;-44
2020/12/10 08:19:30;;;;;;;136.80;46.13;;;;;;;-0.59;98.72;100344.31;4936402;28;20408;-47
2020/12/10 08:21:59;;;;;;;119.93;42.35;;;;;;;-0.22;99.03;100335.72;4932705;29;20364;-41
2020/12/10 08:24:43;;;;;;;129.60;44.70;;;;;;;-0.27;98.25;100338.81;4957139;28;20043;-44
2020/12/10 08:27:11;;;;;;;121.68;42.72;;;;;;;-0.31;97.16;100338.53;4958106;28;20059;-43
2020/12/10 08:29:38;;;;;;;120.97;42.58;;;;;;;-0.29;98.24;100327.78;4949113;28;20089;-45
2020/12/10 08:32:06;;;;;;;126.20;44.42;;;;;;;-0.49;99.32;100330.69;4965897;28;20105;-46
2020/12/10 08:34:34;;;;;;;126.00;44.88;;;;;;;-0.10;97.66;100328.94;4979112;28;20050;-43
2020/12/10 08:37:08;;;;;;;113.32;39.42;;;;;;;-0.49;97.76;100322.28;4975480;28;20082;-45
2020/12/10 08:39:39;;;;;;;115.80;40.83;;;;;;;-0.30;97.93;100317.63;4964356;28;20565;-41
2020/12/10 08:42:07;;;;;;;113.93;38.38;;;;;;;-0.28;98.13;100319.47;4976168;28;20069;-40
2020/12/10 08:45:03;;;;;;;114.43;40.20;;;;;;;-0.36;96.89;100323.16;4980958;28;20479;-40
2020/12/10 08:47:34;;;;;;;113.03;40.10;;;;;;;-0.36;97.21;100324.81;4968319;28;20074;-41
2020/12/10 08:50:27;;;;;;;105.22;38.33;;;;;;;-0.89;98.87;100322.22;4980566;28;20050;-43
2020/12/10 08:53:00;;;;;;;113.32;41.13;;;;;;;-0.95;99.69;100321.84;4974317;28;20051;-45
2020/12/10 08:55:47;;;;;;;119.00;41.47;;;;;;;-0.87;99.73;100330.75;4975477;28;20053;-44
2020/12/10 08:58:19;;;;;;;118.03;41.05;;;;;;;-0.56;98.42;100331.94;4978305;28;20047;-42
2020/12/10 09:00:51;;;;;;;113.47;40.95;;;;;;;-0.34;97.36;100334.16;4979200;28;20129;-43
2020/12/10 09:03:18;;;;;;;104.82;38.00;;;;;;;-0.19;96.76;100329.22;4973607;28;20047;-42
2020/12/10 09:05:45;;;;;;;109.50;37.83;;;;;;;-0.35;97.49;100329.06;4973991;28;20106;-43
2020/12/10 09:08:12;;;;;;;109.38;38.00;;;;;;;-0.67;97.98;100327.88;4979725;28;20050;-40
2020/12/10 09:10:39;;;;;;;100.45;37.60;;;;;;;-0.45;97.11;100327.59;4980978;28;20125;-41
2020/12/10 09:13:08;;;;;;;101.57;35.53;;;;;;;-0.28;97.40;100322.00;4979250;28;20054;-44
2020/12/10 09:15:41;;;;;;;116.90;41.60;;;;;;;-0.80;98.25;100327.84;4978005;28;20125;-42
2020/12/10 09:18:09;;;;;;;109.85;37.13;;;;;;;-0.45;98.31;100332.63;4980953;28;20682;-40
2020/12/10 09:20:35;;;;;;;108.78;39.42;;;;;;;-0.50;98.60;100335.63;4977099;28;20055;-40
2020/12/10 09:23:01;;;;;;;115.68;38.83;;;;;;;-0.64;98.79;100334.75;4978739;28;20054;-40
2020/12/10 09:25:28;;;;;;;115.32;40.05;;;;;;;-0.47;98.06;100331.66;4961491;28;20388;-41
2020/12/10 09:27:55;;;;;;;115.30;39.97;;;;;;;-0.62;98.60;100325.66;4960669;28;20046;-43
2020/12/10 09:30:21;;;;;;;120.50;41.00;;;;;;;-0.55;99.13;100320.25;4981065;28;20042;-41
2020/12/10 09:32:48;;;;;;;104.43;39.38;;;;;;;-0.62;99.23;100328.16;4985610;28;20161;-41
2020/12/10 09:35:17;;;;;;;118.35;42.08;;;;;;;-0.61;99.49;100324.88;4984406;28;20086;-43
2020/12/10 09:37:44;;;;;;;111.25;38.97;;;;;;;-0.58;100.00;100328.47;4977313;28;20047;-41
2020/12/10 09:40:13;;;;;;;109.95;37.83;;;;;;;-0.30;97.80;100326.03;4975195;28;20451;-40
2020/12/10 09:42:42;;;;;;;103.03;38.67;;;;;;;-0.57;98.29;100326.81;4974494;28;20047;-41
2020/12/10 09:45:15;;;;;;;102.30;35.33;;;;;;;-0.43;98.61;100322.66;4977268;28;20570;-40
2020/12/10 09:47:45;;;;;;;101.97;36.45;;;;;;;-0.69;98.32;100326.00;4979445;28;20059;-42
2020/12/10 09:50:23;;;;;;;96.20;35.60;;;;;;;-0.73;98.76;100319.94;4983862;28;20050;-42
2020/12/10 09:53:11;;;;;;;94.88;35.78;;;;;;;-0.48;98.46;100318.97;4973946;28;20389;-40
2020/12/10 09:56:12;;;;;;;98.70;34.92;;;;;;;-0.46;98.06;100325.88;4956157;28;20047;-40
2020/12/10 09:58:26;;;;;;;109.57;37.67;;;;;;;-0.30;97.44;100318.50;4965185;28;20046;-43
2020/12/10 10:00:52;;;;;;;101.25;36.75;;;;;;;0.13;95.36;100307.69;4961428;28;20055;-40
2020/12/10 10:03:20;;;;;;;101.38;38.08;;;;;;;-0.46;96.52;100309.88;4966865;28;20058;-40
2020/12/10 10:05:52;;;;;;;91.82;36.20;;;;;;;-0.23;96.77;100306.28;4979155;28;20105;-40
2020/12/10 10:08:22;;;;;;;104.97;37.30;;;;;;;-0.62;97.31;100308.06;4975622;28;20047;-40
2020/12/10 10:10:49;;;;;;;104.70;37.38;;;;;;;-0.60;97.81;100309.00;4977954;28;20038;-40
2020/12/10 10:13:16;;;;;;;92.63;35.13;;;;;;;-0.19;97.13;100308.22;4975831;28;20462;-42
2020/12/10 10:15:43;;;;;;;94.03;35.35;;;;;;;-0.55;97.33;100315.22;4977667;28;20557;-40
2020/12/10 10:18:09;;;;;;;90.90;33.70;;;;;;;-0.18;96.28;100308.34;4981889;28;20447;-43
2020/12/10 10:20:37;;;;;;;95.82;34.67;;;;;;;-0.33;96.31;100305.72;4980092;28;20117;-41
2020/12/10 10:23:04;;;;;;;99.47;38.25;;;;;;;-0.37;96.06;100301.31;4981094;28;20072;-42
2020/12/10 10:25:30;;;;;;;97.93;34.88;;;;;;;-0.40;96.52;100302.75;4978239;28;20097;-41
2020/12/10 10:28:01;;;;;;;93.70;34.58;;;;;;;-0.11;96.17;100297.00;4975579;28;20039;-42
2020/12/10 10:30:28;;;;;;;84.57;31.77;;;;;;;-0.37;96.62;100287.81;4978392;28;20138;-40
2020/12/10 10:32:54;;;;;;;93.28;35.05;;;;;;;-0.65;97.62;100292.75;4971537;28;20049;-42
2020/12/10 10:35:23;;;;;;;88.35;32.97;;;;;;;-0.39;96.72;100295.28;4975446;28;20043;-40
2020/12/10 10:37:50;;;;;;;80.65;31.73;;;;;;;-0.54;95.60;100294.31;4970965;28;20050;-40
2020/12/10 10:40:18;;;;;;;86.35;30.90;;;;;;;-0.26;94.83;100291.91;4974439;28;20076;-40
2020/12/10 10:42:46;;;;;;;94.13;32.75;;;;;;;-0.66;95.86;100286.00;4978114;28;20180;-41
2020/12/10 10:45:13;;;;;;;82.00;29.55;;;;;;;0.01;94.82;100287.69;4987516;23;20042;-41
2020/12/10 10:47:40;;;;;;;82.75;30.83;;;;;;;0.04;94.06;100292.03;4972943;28;20499;-39
2020/12/10 10:50:07;;;;;;;81.85;29.52;;;;;;;-0.09;92.71;100290.44;4971319;28;20137;-42
2020/12/10 10:52:34;;;;;;;79.22;30.08;;;;;;;-0.08;94.10;100289.66;4954438;28;20087;-39
2020/12/10 10:55:03;;;;;;;83.90;30.52;;;;;;;-0.20;94.22;100284.72;4969269;28;20124;-44
2020/12/10 10:57:29;;;;;;;91.25;32.95;;;;;;;-0.16;93.69;100288.28;4962609;28;20038;-45
2020/12/10 10:59:56;;;;;;;88.32;32.05;;;;;;;-0.41;94.82;100283.41;4975279;28;20114;-41
2020/12/10 11:02:27;;;;;;;81.10;29.98;;;;;;;0.17;93.57;100284.44;4973391;28;20043;-41
2020/12/10 11:04:54;;;;;;;82.15;31.08;;;;;;;-0.36;94.44;100277.88;4977181;28;20580;-42
2020/12/10 11:07:21;;;;;;;83.68;31.27;;;;;;;0.07;94.68;100269.56;4973429;28;20050;-43
2020/12/10 11:09:47;;;;;;;92.75;35.22;;;;;;;-0.39;95.38;100265.09;4977478;28;20050;-43
2020/12/10 11:12:14;;;;;;;94.32;32.90;;;;;;;-0.34;96.56;100263.75;4976473;28;20454;-42